createdAt,value
2022-12-25T00:01:53.163Z,99927.31
2022-12-25T00:04:20.711Z,99936.56
2022-12-25T00:06:47.910Z,99937.75
2022-12-25T00:09:15.198Z,99945.47
2022-12-25T00:11:42.693Z,99945.88
2022-12-25T00:14:09.915Z,99955.66
2022-12-25T00:16:37.150Z,99956.22
2022-12-25T00:19:04.680Z,99957.41
2022-12-25T00:21:33.309Z,99957.44
2022-12-25T00:24:01.563Z,99955.69
2022-12-25T00:26:29.806Z,99955.03
2022-12-25T00:28:57.258Z,99962.72
2022-12-25T00:31:24.968Z,99978.59
2022-12-25T00:33:52.527Z,99980.16
2022-12-25T00:36:20.237Z,99977.87
2022-12-25T00:38:47.506Z,99978.19
2022-12-25T00:41:16.408Z,99982.34
2022-12-25T00:43:43.699Z,99979.91
2022-12-25T00:46:12.029Z,99982.22
2022-12-25T00:48:39.726Z,100002.28
2022-12-25T00:51:07.862Z,100015.69
2022-12-25T00:53:35.005Z,100014.69
2022-12-25T00:56:04.456Z,99999.88
2022-12-25T00:58:32.692Z,100010.22
2022-12-25T01:00:59.980Z,100008.53
2022-12-25T01:03:27.821Z,99997.88
2022-12-25T01:05:58.643Z,99993.69
2022-12-25T01:08:26.256Z,99991.72
2022-12-25T01:10:54.465Z,99997.69
2022-12-25T01:13:21.879Z,100011.13
2022-12-25T01:15:49.304Z,100013.41
2022-12-25T01:18:16.784Z,100008.19
2022-12-25T01:20:43.989Z,100012.09
2022-12-25T01:23:11.140Z,100017.41
2022-12-25T01:25:38.573Z,100006.44
2022-12-25T01:28:05.933Z,100009.63
2022-12-25T01:30:33.281Z,100007.06
2022-12-25T01:33:00.758Z,99999.88
2022-12-25T01:35:27.931Z,100004.38
2022-12-25T01:37:55.506Z,100016.72
2022-12-25T01:40:22.955Z,100024.56
2022-12-25T01:42:50.265Z,100025.06
2022-12-25T01:45:30.645Z,100022.50
2022-12-25T01:47:58.176Z,100026.94
2022-12-25T01:50:25.509Z,100018.62
2022-12-25T01:52:52.737Z,100026.56
2022-12-25T01:55:20.169Z,100030.63
2022-12-25T01:57:47.488Z,100024.03
2022-12-25T02:00:16.298Z,100022.94
2022-12-25T02:02:43.906Z,100026.34
2022-12-25T02:05:19.665Z,100023.16
2022-12-25T02:07:47.323Z,100024.50
2022-12-25T02:10:14.477Z,100024.91
2022-12-25T02:12:41.857Z,100018.28
2022-12-25T02:15:13.617Z,100027.31
2022-12-25T02:17:59.143Z,100021.59
2022-12-25T02:20:30.051Z,100027.31
2022-12-25T02:23:03.381Z,100023.06
2022-12-25T02:25:49.231Z,100018.28
2022-12-25T02:28:26.531Z,100018.97
2022-12-25T02:31:00.608Z,100032.19
2022-12-25T02:33:48.049Z,100020.97
2022-12-25T02:36:16.219Z,100021.09
2022-12-25T02:39:03.342Z,100031.22
2022-12-25T02:41:31.427Z,100035.50
2022-12-25T02:44:17.705Z,100035.62
2022-12-25T02:47:03.888Z,100036.97
2022-12-25T02:49:49.684Z,100039.75
2022-12-25T02:52:37.512Z,100043.94
2022-12-25T02:55:28.492Z,100042.97
2022-12-25T02:58:14.728Z,100048.06
2022-12-25T03:01:01.878Z,100050.50
2022-12-25T03:03:49.287Z,100058.44
2022-12-25T03:06:35.558Z,100054.56
2022-12-25T03:09:22.536Z,100052.34
2022-12-25T03:11:52.633Z,100073.25
2022-12-25T03:14:38.834Z,100081.41
2022-12-25T03:17:06.304Z,100078.00
2022-12-25T03:19:52.518Z,100089.00
2022-12-25T03:22:40.863Z,100080.94
2022-12-25T03:25:27.262Z,100080.81
2022-12-25T03:27:56.001Z,100072.13
2022-12-25T03:30:43.072Z,100082.25
2022-12-25T03:33:29.837Z,100086.31
2022-12-25T03:36:08.261Z,100083.69
2022-12-25T03:39:16.908Z,100092.34
2022-12-25T03:42:04.073Z,100100.16
2022-12-25T03:45:12.440Z,100105.69
2022-12-25T03:47:59.099Z,100109.34
2022-12-25T03:51:00.467Z,100111.53
2022-12-25T03:53:48.586Z,100111.16
2022-12-25T03:56:37.521Z,100123.62
2022-12-25T03:59:24.345Z,100120.16
2022-12-25T04:02:10.726Z,100113.69
2022-12-25T04:04:56.803Z,100110.34
2022-12-25T04:07:42.931Z,100112.19
2022-12-25T04:10:29.619Z,100115.25
2022-12-25T04:13:15.507Z,100108.91
2022-12-25T04:16:01.864Z,100101.56
2022-12-25T04:18:48.120Z,100099.25
2022-12-25T04:21:34.378Z,100098.16
2022-12-25T04:24:20.436Z,100098.31
2022-12-25T04:27:06.628Z,100108.22
2022-12-25T04:29:52.652Z,100111.84
2022-12-25T04:32:39.090Z,100108.19
2022-12-25T04:35:24.650Z,100106.13
2022-12-25T04:37:52.140Z,100099.75
2022-12-25T04:40:19.365Z,100103.41
2022-12-25T04:42:46.734Z,100102.91
2022-12-25T04:45:14.327Z,100094.25
2022-12-25T04:47:41.463Z,100108.66
2022-12-25T04:50:08.746Z,100104.50
2022-12-25T04:52:37.247Z,100103.62
2022-12-25T04:55:05.038Z,100103.75
2022-12-25T04:57:32.565Z,100098.91
2022-12-25T05:00:00.126Z,100104.38
2022-12-25T05:02:27.400Z,100121.34
2022-12-25T05:04:55.007Z,100119.63
2022-12-25T05:07:22.442Z,100115.00
2022-12-25T05:09:49.831Z,100108.41
2022-12-25T05:12:17.084Z,100108.53
2022-12-25T05:14:44.500Z,100105.50
2022-12-25T05:17:11.707Z,100100.94
2022-12-25T05:19:38.953Z,100111.47
2022-12-25T05:22:06.426Z,100116.97
2022-12-25T05:24:33.616Z,100120.75
2022-12-25T05:27:00.778Z,100113.53
2022-12-25T05:29:28.266Z,100120.91
2022-12-25T05:31:55.455Z,100121.38
2022-12-25T05:34:22.645Z,100116.38
2022-12-25T05:36:50.161Z,100113.44
2022-12-25T05:39:17.337Z,100117.97
2022-12-25T05:41:44.551Z,100116.03
2022-12-25T05:44:12.051Z,100123.84
2022-12-25T05:46:39.914Z,100122.59
2022-12-25T05:49:07.171Z,100130.16
2022-12-25T05:51:34.639Z,100127.72
2022-12-25T05:54:01.821Z,100126.91
2022-12-25T05:56:29.116Z,100139.25
2022-12-25T05:58:56.690Z,100131.56
2022-12-25T06:01:25.269Z,100131.19
2022-12-25T06:03:53.001Z,100129.13
2022-12-25T06:06:20.318Z,100138.47
2022-12-25T06:08:47.495Z,100140.19
2022-12-25T06:11:15.164Z,100133.66
2022-12-25T06:13:42.572Z,100140.66
2022-12-25T06:16:10.695Z,100135.03
2022-12-25T06:18:38.873Z,100118.19
2022-12-25T06:21:07.280Z,100110.12
2022-12-25T06:23:34.674Z,100121.13
2022-12-25T06:26:09.236Z,100129.03
2022-12-25T06:28:36.561Z,100128.06
2022-12-25T06:31:11.606Z,100126.25
2022-12-25T06:33:38.918Z,100123.94
2022-12-25T06:36:10.093Z,100123.94
2022-12-25T06:38:37.418Z,100134.69
2022-12-25T06:41:05.641Z,100139.94
2022-12-25T06:43:33.120Z,100138.63
2022-12-25T06:46:10.844Z,100152.75
2022-12-25T06:48:38.950Z,100158.41
2022-12-25T06:51:06.396Z,100159.50
2022-12-25T06:53:39.809Z,100163.31
2022-12-25T06:56:09.701Z,100171.75
2022-12-25T06:58:36.924Z,100164.03
2022-12-25T07:01:15.192Z,100164.44
2022-12-25T07:03:43.449Z,100168.75
2022-12-25T07:06:10.644Z,100173.66
2022-12-25T07:08:37.864Z,100174.31
2022-12-25T07:11:05.443Z,100181.22
2022-12-25T07:13:32.677Z,100189.56
2022-12-25T07:16:00.144Z,100196.37
2022-12-25T07:18:27.826Z,100200.25
2022-12-25T07:20:55.840Z,100203.16
2022-12-25T07:23:23.153Z,100217.66
2022-12-25T07:25:57.673Z,100220.47
2022-12-25T07:28:24.905Z,100221.00
2022-12-25T07:30:52.462Z,100218.31
2022-12-25T07:33:19.761Z,100213.41
2022-12-25T07:35:47.001Z,100218.31
2022-12-25T07:38:14.460Z,100222.97
2022-12-25T07:40:41.681Z,100221.16
2022-12-25T07:43:08.853Z,100227.81
2022-12-25T07:45:36.338Z,100230.59
2022-12-25T07:48:05.796Z,100235.16
2022-12-25T07:50:34.156Z,100245.75
2022-12-25T07:53:01.639Z,100253.44
2022-12-25T07:55:28.874Z,100262.94
2022-12-25T07:57:56.062Z,100261.03
2022-12-25T08:00:29.545Z,100262.19
2022-12-25T08:02:57.138Z,100265.38
2022-12-25T08:05:24.495Z,100267.28
2022-12-25T08:07:57.351Z,100262.00
2022-12-25T08:10:25.798Z,100266.44
2022-12-25T08:12:55.442Z,100271.88
2022-12-25T08:15:22.650Z,100276.34
2022-12-25T08:17:50.340Z,100273.72
2022-12-25T08:20:17.542Z,100281.91
2022-12-25T08:22:44.723Z,100278.63
2022-12-25T08:25:12.151Z,100274.63
2022-12-25T08:27:39.314Z,100279.81
2022-12-25T08:30:07.244Z,100278.34
2022-12-25T08:32:35.408Z,100288.25
2022-12-25T08:35:02.619Z,100286.22
2022-12-25T08:37:30.255Z,100278.44
2022-12-25T08:39:57.927Z,100271.72
2022-12-25T08:42:25.091Z,100279.53
2022-12-25T08:44:52.230Z,100279.84
2022-12-25T08:47:19.718Z,100276.97
2022-12-25T08:49:46.879Z,100284.00
2022-12-25T08:52:14.513Z,100283.09
2022-12-25T08:54:42.065Z,100289.00
2022-12-25T08:57:09.307Z,100291.56
2022-12-25T08:59:36.512Z,100288.34
2022-12-25T09:02:04.063Z,100287.06
2022-12-25T09:04:31.290Z,100291.16
2022-12-25T09:06:58.455Z,100298.00
2022-12-25T09:09:27.190Z,100294.31
2022-12-25T09:11:54.622Z,100294.75
2022-12-25T09:14:21.978Z,100288.44
2022-12-25T09:16:49.989Z,100291.84
2022-12-25T09:19:17.179Z,100295.84
2022-12-25T09:21:44.409Z,100287.25
2022-12-25T09:24:11.879Z,100286.56
2022-12-25T09:26:39.129Z,100281.03
2022-12-25T09:29:06.373Z,100278.66
2022-12-25T09:31:33.935Z,100286.88
2022-12-25T09:34:01.193Z,100284.50
2022-12-25T09:36:28.453Z,100286.03
2022-12-25T09:38:55.908Z,100282.81
2022-12-25T09:41:28.244Z,100283.56
2022-12-25T09:44:01.472Z,100286.28
2022-12-25T09:46:34.936Z,100292.34
2022-12-25T09:49:05.810Z,100291.31
2022-12-25T09:51:33.909Z,100292.44
2022-12-25T09:54:03.669Z,100287.91
2022-12-25T09:56:31.822Z,100295.84
2022-12-25T09:58:58.991Z,100298.63
2022-12-25T10:01:38.675Z,100300.34
2022-12-25T10:04:22.799Z,100295.75
2022-12-25T10:06:53.005Z,100289.44
2022-12-25T10:09:20.454Z,100301.00
2022-12-25T10:12:16.920Z,100290.50
2022-12-25T10:15:03.133Z,100285.91
2022-12-25T10:18:06.353Z,100273.97
2022-12-25T10:20:46.651Z,100261.84
2022-12-25T10:23:18.431Z,100268.53
2022-12-25T10:25:45.871Z,100260.41
2022-12-25T10:28:14.625Z,100263.03
2022-12-25T10:30:45.497Z,100256.19
2022-12-25T10:33:16.889Z,100249.66
2022-12-25T10:35:44.705Z,100249.09
2022-12-25T10:38:13.972Z,100247.00
2022-12-25T10:40:53.493Z,100250.09
2022-12-25T10:43:30.619Z,100254.72
2022-12-25T10:45:58.560Z,100250.03
2022-12-25T10:48:26.864Z,100252.38
2022-12-25T10:50:54.054Z,100245.41
2022-12-25T10:53:23.711Z,100241.56
2022-12-25T10:56:13.881Z,100254.81
2022-12-25T10:58:41.395Z,100251.44
2022-12-25T11:01:08.655Z,100251.03
2022-12-25T11:03:37.983Z,100246.47
2022-12-25T11:06:05.750Z,100245.06
2022-12-25T11:08:33.593Z,100240.25
2022-12-25T11:11:06.281Z,100234.47
2022-12-25T11:13:40.721Z,100230.53
2022-12-25T11:16:15.001Z,100228.25
2022-12-25T11:18:49.452Z,100209.75
2022-12-25T11:21:18.365Z,100222.63
2022-12-25T11:23:46.966Z,100216.66
2022-12-25T11:26:14.412Z,100210.25
2022-12-25T11:28:41.813Z,100209.25
2022-12-25T11:31:12.979Z,100212.47
2022-12-25T11:33:42.924Z,100220.88
2022-12-25T11:36:28.724Z,100213.66
2022-12-25T11:38:55.995Z,100215.62
2022-12-25T11:41:24.759Z,100219.38
2022-12-25T11:43:59.406Z,100218.53
2022-12-25T11:46:27.895Z,100218.91
2022-12-25T11:48:57.089Z,100216.91
2022-12-25T11:51:25.004Z,100215.75
2022-12-25T11:53:56.412Z,100209.09
2022-12-25T11:56:28.416Z,100211.03
2022-12-25T11:59:22.358Z,100210.03
2022-12-25T12:01:53.401Z,100210.19
2022-12-25T12:04:30.211Z,100207.66
2022-12-25T12:07:12.624Z,100208.47
2022-12-25T12:09:43.197Z,100203.56
2022-12-25T12:12:10.377Z,100204.16
2022-12-25T12:14:43.575Z,100201.19
2022-12-25T12:17:12.308Z,100208.19
2022-12-25T12:19:39.469Z,100214.44
2022-12-25T12:22:06.756Z,100219.50
2022-12-25T12:24:41.139Z,100213.06
2022-12-25T12:27:27.367Z,100217.19
2022-12-25T12:29:56.006Z,100219.75
2022-12-25T12:32:26.250Z,100216.31
2022-12-25T12:34:53.500Z,100225.91
2022-12-25T12:37:25.130Z,100233.13
2022-12-25T12:39:53.108Z,100212.78
2022-12-25T12:42:22.588Z,100214.50
2022-12-25T12:44:49.832Z,100217.63
2022-12-25T12:47:29.308Z,100219.31
2022-12-25T12:49:57.649Z,100215.12
2022-12-25T12:52:32.131Z,100222.72
2022-12-25T12:54:59.665Z,100225.72
2022-12-25T12:57:29.466Z,100225.28
2022-12-25T12:59:57.212Z,100237.53
2022-12-25T13:02:27.851Z,100239.94
2022-12-25T13:05:03.110Z,100239.00
2022-12-25T13:07:43.895Z,100235.88
2022-12-25T13:10:23.123Z,100240.03
2022-12-25T13:12:54.341Z,100236.28
2022-12-25T13:15:21.518Z,100243.50
2022-12-25T13:17:50.079Z,100239.00
2022-12-25T13:20:20.095Z,100226.84
2022-12-25T13:22:52.534Z,100227.06
2022-12-25T13:25:21.664Z,100227.19
2022-12-25T13:27:58.120Z,100224.38
2022-12-25T13:30:25.737Z,100226.78
2022-12-25T13:32:53.117Z,100227.13
2022-12-25T13:35:21.181Z,100234.13
2022-12-25T13:37:48.761Z,100235.66
2022-12-25T13:40:19.013Z,100229.47
2022-12-25T13:42:46.286Z,100231.47
2022-12-25T13:45:13.761Z,100235.56
2022-12-25T13:47:43.207Z,100241.19
2022-12-25T13:50:15.160Z,100238.75
2022-12-25T13:52:42.647Z,100241.78
2022-12-25T13:55:14.254Z,100237.94
2022-12-25T13:57:45.782Z,100235.66
2022-12-25T14:00:18.438Z,100238.34
2022-12-25T14:02:45.977Z,100238.66
2022-12-25T14:05:28.672Z,100237.72
2022-12-25T14:07:57.166Z,100230.59
2022-12-25T14:10:28.166Z,100234.44
2022-12-25T14:12:56.790Z,100241.81
2022-12-25T14:15:24.139Z,100240.28
2022-12-25T14:17:51.382Z,100232.94
2022-12-25T14:20:26.284Z,100242.12
2022-12-25T14:22:53.765Z,100236.84
2022-12-25T14:25:21.363Z,100239.28
2022-12-25T14:27:49.453Z,100245.03
2022-12-25T14:30:16.823Z,100249.63
2022-12-25T14:32:45.165Z,100249.81
2022-12-25T14:35:12.905Z,100251.34
2022-12-25T14:37:41.966Z,100248.75
2022-12-25T14:40:26.014Z,100251.50
2022-12-25T14:42:57.544Z,100252.38
2022-12-25T14:45:24.947Z,100259.22
2022-12-25T14:47:55.949Z,100265.03
2022-12-25T14:50:27.465Z,100258.19
2022-12-25T14:52:55.286Z,100260.91
2022-12-25T14:55:23.434Z,100255.19
2022-12-25T14:57:52.263Z,100256.03
2022-12-25T15:00:35.830Z,100249.31
2022-12-25T15:03:07.120Z,100255.47
2022-12-25T15:05:36.078Z,100254.88
2022-12-25T15:08:06.468Z,100256.12
2022-12-25T15:13:21.170Z,100261.22
2022-12-25T15:15:56.567Z,100259.69
2022-12-25T15:18:24.330Z,100269.50
2022-12-25T15:20:56.259Z,100260.78
2022-12-25T15:23:25.385Z,100252.56
2022-12-25T15:25:52.702Z,100248.66
2022-12-25T15:28:19.853Z,100249.81
2022-12-25T15:30:47.595Z,100252.50
2022-12-25T15:33:15.866Z,100251.44
2022-12-25T15:35:44.411Z,100241.28
2022-12-25T15:38:12.545Z,100246.34
2022-12-25T15:40:39.971Z,100253.72
2022-12-25T15:43:14.593Z,100261.59
2022-12-25T15:45:54.712Z,100269.19
2022-12-25T15:48:21.863Z,100260.50
2022-12-25T15:50:49.400Z,100271.50
2022-12-25T15:53:16.891Z,100265.72
2022-12-25T15:55:44.266Z,100259.16
2022-12-25T15:58:12.573Z,100255.88
2022-12-25T16:00:40.123Z,100265.44
2022-12-25T16:03:07.793Z,100259.06
2022-12-25T16:05:35.189Z,100252.59
2022-12-25T16:08:02.671Z,100262.44
2022-12-25T16:10:36.560Z,100265.59
2022-12-25T16:13:05.604Z,100265.88
2022-12-25T16:15:33.230Z,100261.37
2022-12-25T16:18:00.639Z,100251.44
2022-12-25T16:20:27.810Z,100256.31
2022-12-25T16:22:55.365Z,100255.91
2022-12-25T16:25:22.519Z,100252.09
2022-12-25T16:27:49.745Z,100246.59
2022-12-25T16:30:17.613Z,100248.84
2022-12-25T16:32:45.413Z,100245.09
2022-12-25T16:35:12.706Z,100244.22
2022-12-25T16:37:40.196Z,100240.25
2022-12-25T16:40:08.447Z,100239.84
2022-12-25T16:42:36.060Z,100238.62
2022-12-25T16:45:03.684Z,100237.69
2022-12-25T16:47:32.103Z,100245.72
2022-12-25T16:50:00.239Z,100235.28
2022-12-25T16:52:27.872Z,100239.09
2022-12-25T16:54:55.000Z,100235.03
2022-12-25T16:57:22.304Z,100239.66
2022-12-25T16:59:49.820Z,100233.22
2022-12-25T17:02:17.803Z,100233.31
2022-12-25T17:04:45.267Z,100229.66
2022-12-25T17:07:13.138Z,100234.06
2022-12-25T17:09:44.069Z,100230.37
2022-12-25T17:12:11.881Z,100237.97
2022-12-25T17:14:39.736Z,100224.69
2022-12-25T17:17:06.938Z,100228.94
2022-12-25T17:19:34.102Z,100225.25
2022-12-25T17:22:01.625Z,100240.06
2022-12-25T17:24:29.059Z,100236.72
2022-12-25T17:26:56.244Z,100236.63
2022-12-25T17:29:25.176Z,100240.69
2022-12-25T17:31:52.487Z,100237.00
2022-12-25T17:34:20.161Z,100228.56
2022-12-25T17:36:47.856Z,100216.41
2022-12-25T17:39:15.139Z,100208.66
2022-12-25T17:41:42.315Z,100202.28
2022-12-25T17:44:09.873Z,100203.75
2022-12-25T17:46:37.972Z,100202.66
2022-12-25T17:49:05.752Z,100207.94
2022-12-25T17:51:33.245Z,100216.72
2022-12-25T17:54:03.359Z,100217.19
2022-12-25T17:56:31.272Z,100213.06
2022-12-25T17:59:00.496Z,100207.91
2022-12-25T18:01:28.322Z,100212.28
2022-12-25T18:03:56.012Z,100219.22
2022-12-25T18:06:24.129Z,100212.09
2022-12-25T18:08:51.332Z,100216.37
2022-12-25T18:11:19.797Z,100207.28
2022-12-25T18:13:49.853Z,100214.63
2022-12-25T18:16:17.495Z,100207.94
2022-12-25T18:18:51.485Z,100209.03
2022-12-25T18:21:20.330Z,100201.97
2022-12-25T18:23:47.834Z,100205.41
2022-12-25T18:26:15.119Z,100202.91
2022-12-25T18:28:42.829Z,100195.53
2022-12-25T18:31:10.860Z,100189.63
2022-12-25T18:33:42.247Z,100193.00
2022-12-25T18:36:12.139Z,100193.91
2022-12-25T18:38:39.334Z,100195.88
2022-12-25T18:41:07.025Z,100191.31
2022-12-25T18:43:52.062Z,100192.97
2022-12-25T18:46:24.193Z,100195.44
2022-12-25T18:48:52.731Z,100187.25
2022-12-25T18:51:19.935Z,100184.16
2022-12-25T18:53:47.163Z,100186.41
2022-12-25T18:56:16.558Z,100183.78
2022-12-25T18:58:44.067Z,100187.78
2022-12-25T19:01:18.487Z,100191.44
2022-12-25T19:03:49.164Z,100186.66
2022-12-25T19:06:21.810Z,100182.97
2022-12-25T19:08:49.504Z,100175.28
2022-12-25T19:11:18.004Z,100174.69
2022-12-25T19:13:46.949Z,100174.03
2022-12-25T19:16:15.295Z,100177.81
2022-12-25T19:18:43.197Z,100173.81
2022-12-25T19:21:11.279Z,100173.50
2022-12-25T19:23:38.879Z,100176.75
2022-12-25T19:26:06.840Z,100170.16
2022-12-25T19:28:35.118Z,100186.72
2022-12-25T19:31:04.020Z,100193.28
2022-12-25T19:33:31.775Z,100186.13
2022-12-25T19:36:09.197Z,100188.59
2022-12-25T19:38:38.517Z,100195.34
2022-12-25T19:41:07.560Z,100193.84
2022-12-25T19:43:37.164Z,100188.69
2022-12-25T19:46:06.427Z,100186.88
2022-12-25T19:48:34.695Z,100172.69
2022-12-25T19:51:03.014Z,100171.72
2022-12-25T19:53:31.020Z,100171.47
2022-12-25T19:56:00.808Z,100174.41
2022-12-25T19:58:28.187Z,100177.81
2022-12-25T20:01:00.064Z,100165.03
2022-12-25T20:03:27.779Z,100165.25
2022-12-25T20:05:55.091Z,100151.97
2022-12-25T20:08:22.570Z,100138.47
2022-12-25T20:10:50.174Z,100136.31
2022-12-25T20:13:17.490Z,100137.06
2022-12-25T20:15:44.729Z,100128.97
2022-12-25T20:18:12.169Z,100138.41
2022-12-25T20:20:39.415Z,100137.78
2022-12-25T20:23:06.698Z,100154.53
2022-12-25T20:25:34.293Z,100156.28
2022-12-25T20:28:01.471Z,100139.38
2022-12-25T20:30:28.830Z,100138.56
2022-12-25T20:32:57.950Z,100133.19
2022-12-25T20:35:25.172Z,100137.53
2022-12-25T20:37:52.396Z,100120.34
2022-12-25T20:40:19.918Z,100132.97
2022-12-25T20:42:47.208Z,100131.03
2022-12-25T20:45:14.434Z,100129.25
2022-12-25T20:47:41.932Z,100124.97
2022-12-25T20:50:09.168Z,100115.75
2022-12-25T20:52:36.415Z,100117.28
2022-12-25T20:55:04.095Z,100124.56
2022-12-25T20:57:31.270Z,100133.44
2022-12-25T20:59:58.576Z,100136.38
2022-12-25T21:02:35.745Z,100129.22
2022-12-25T21:05:05.042Z,100135.66
2022-12-25T21:07:32.577Z,100121.50
2022-12-25T21:09:59.808Z,100131.66
2022-12-25T21:12:27.017Z,100121.16
2022-12-25T21:14:54.536Z,100122.31
2022-12-25T21:17:21.818Z,100123.09
2022-12-25T21:19:50.124Z,100125.50
2022-12-25T21:22:18.111Z,100128.25
2022-12-25T21:24:45.457Z,100126.88
2022-12-25T21:27:12.794Z,100117.09
2022-12-25T21:29:40.315Z,100110.63
2022-12-25T21:32:26.437Z,100126.97
2022-12-25T21:34:53.929Z,100118.22
2022-12-25T21:37:21.135Z,100111.00
2022-12-25T21:39:51.363Z,100104.97
2022-12-25T21:42:19.149Z,100104.03
2022-12-25T21:44:46.397Z,100101.69
2022-12-25T21:47:13.614Z,100092.03
2022-12-25T21:49:59.619Z,100091.13
2022-12-25T21:52:26.857Z,100098.81
2022-12-25T21:54:54.400Z,100099.97
2022-12-25T21:57:21.733Z,100106.78
2022-12-25T21:59:48.959Z,100121.25
2022-12-25T22:02:16.637Z,100123.59
2022-12-25T22:04:44.290Z,100123.28
2022-12-25T22:07:17.759Z,100129.75
2022-12-25T22:09:49.077Z,100132.72
2022-12-25T22:12:35.097Z,100124.56
2022-12-25T22:15:07.157Z,100124.69
2022-12-25T22:18:00.274Z,100132.66
2022-12-25T22:20:30.152Z,100134.47
2022-12-25T22:22:57.722Z,100121.38
2022-12-25T22:25:25.109Z,100115.16
2022-12-25T22:27:52.944Z,100108.66
2022-12-25T22:30:24.822Z,100110.28
2022-12-25T22:32:52.318Z,100103.16
2022-12-25T22:35:20.139Z,100102.91
2022-12-25T22:37:48.278Z,100098.53
2022-12-25T22:40:16.507Z,100095.84
2022-12-25T22:42:44.043Z,100110.03
2022-12-25T22:45:11.507Z,100116.13
2022-12-25T22:47:38.803Z,100123.19
2022-12-25T22:50:06.770Z,100118.41
2022-12-25T22:52:34.271Z,100109.09
2022-12-25T22:55:02.490Z,100106.31
2022-12-25T22:57:30.298Z,100099.38
2022-12-25T22:59:57.938Z,100104.50
2022-12-25T23:02:26.690Z,100102.66
2022-12-25T23:04:55.069Z,100089.13
2022-12-25T23:07:22.331Z,100083.16
2022-12-25T23:09:49.561Z,100083.28
2022-12-25T23:12:35.817Z,100089.84
2022-12-25T23:15:03.335Z,100095.72
2022-12-25T23:17:49.482Z,100102.66
2022-12-25T23:20:35.236Z,100094.84
2022-12-25T23:23:21.208Z,100107.19
2022-12-25T23:26:07.137Z,100105.97
2022-12-25T23:28:56.597Z,100101.06
2022-12-25T23:31:25.694Z,100102.75
2022-12-25T23:33:53.278Z,100092.50
2022-12-25T23:36:20.484Z,100097.19
2022-12-25T23:38:47.667Z,100099.62
2022-12-25T23:41:15.143Z,100090.19
2022-12-25T23:43:42.555Z,100084.47
2022-12-25T23:46:09.805Z,100075.56
2022-12-25T23:48:37.475Z,100079.47
2022-12-25T23:51:05.449Z,100080.09
2022-12-25T23:53:32.897Z,100079.56
2022-12-25T23:56:00.361Z,100078.63
2022-12-25T23:58:28.030Z,100072.53
